Hauptseite
METAR-TAF:

METAR-TAF

Flughäfen :

Flughafen Treviso

Treviso, Italien

Breite: 45-39N, Länge: 012-11E, Höhe: 18 m

Beobachtung

Neuester Wetterbericht von vor 45 Minuten, um 07:50 UTC
Wind 9 kt aus Ost/Nordost
Temperatur 16°C
Luftfeuchtigkeit 88%
Luftdruck 1015 hPa
Sichtweite 10 km oder mehr
Durchbrochene Bewölkung in der Höhe von 1200 ft

METAR: LIPH 260750Z 06009KT 9999 BKN012 16/14 Q1015

Zeit: 10:35 (08:35 UTC)

Prognose

Neuester Wetterbericht von vor 3 Stunden und 35 Minuten, um 05:00 UTC
Gültige Prognose vom 26 um 06 UTC bis 27 um 06 UTC
Wind 7 kt aus Ost
Sichtweite: 7000 m
Aufgelockert bewölkt in der Höhe von 2000 ft
Zeitweise
vom 26 um 06 UTC bis 26 um 09 UTC
Regen
Zeitweise
vom 26 um 09 UTC bis 26 um 20 UTC
Sichtweite: 3000 m
Gewitter, Regen

TAF: LIPH 260500Z 2606/2706 08007KT 7000 SCT020 TEMPO 2606/2609 RA TEMPO 2609/2620 3000 TSRA

Wetterbeobachtungen und Prognosen von mehr als 4000 Flughäfen (METAR und TAF Bericht).

Die verfügbaren Stationen werden durch gelbe und rote Markierungen auf der Karte dargestellt.

Führen Sie die Maus auf sie, um den Namen der Station zu sehen.

Darauf klicken, um die Beobachtung von Wetterbeobachtungen und Prognosen zu sehen.

Um die Karte zu ändern : klicken Sie auf den grünen Tasten mit einem schwarzen Kreuz Zum Vergrößern, auf den grünen Button mit einem Gedankenstrich zu verkleinern, oder auf die grünen Pfeile für benachbarte Karten.


METAR-TAF: